Time;durP1;ratioP1;P1;durP2;ratioP2;P2;SDS_P1;SDS_P2;PMS_P1;PMS_P2;Temp;Humidity;BMP_temperature;BMP_pressure;BME280_temperature;BME280_humidity;BME280_pressure;Samples;Min_cycle;Max_cycle;Signal;HPM_P1;HPM_P2
2021/08/29 00:00:08;;;;;;;2.58;1.70;;;17.90;99.90;;;;;;6149343;23;20373;-81
2021/08/29 00:02:34;;;;;;;3.15;2.22;;;17.90;99.90;;;;;;6126567;23;20032;-83
2021/08/29 00:05:00;;;;;;;2.38;1.73;;;17.90;99.90;;;;;;6126616;23;19998;-84
2021/08/29 00:07:26;;;;;;;3.38;2.00;;;17.90;99.90;;;;;;6126406;23;20328;-83
2021/08/29 00:09:51;;;;;;;5.80;1.70;;;17.90;99.90;;;;;;6125056;23;20002;-81
2021/08/29 00:12:17;;;;;;;2.25;1.80;;;18.00;99.90;;;;;;6126579;23;20394;-82
2021/08/29 00:14:43;;;;;;;1.75;1.65;;;18.00;99.90;;;;;;6126550;23;19998;-82
2021/08/29 00:17:09;;;;;;;2.67;1.98;;;18.10;99.90;;;;;;6124554;23;20010;-83
2021/08/29 00:19:34;;;;;;;2.92;1.70;;;18.10;99.90;;;;;;6149230;23;20060;-82
2021/08/29 00:22:01;;;;;;;4.97;1.85;;;18.10;99.90;;;;;;6126472;23;20005;-83
2021/08/29 00:24:26;;;;;;;5.63;1.75;;;18.10;99.90;;;;;;6126331;23;20009;-82
2021/08/29 00:26:52;;;;;;;5.82;2.25;;;18.10;99.90;;;;;;6126079;23;20006;-82
2021/08/29 00:29:18;;;;;;;3.33;2.08;;;18.10;99.90;;;;;;6126484;23;20380;-83
2021/08/29 00:31:44;;;;;;;2.60;1.70;;;18.10;99.90;;;;;;6126435;23;20341;-83
2021/08/29 00:34:10;;;;;;;5.40;1.85;;;18.10;99.90;;;;;;6126319;23;19998;-83
2021/08/29 00:36:35;;;;;;;2.45;1.70;;;18.10;99.90;;;;;;6126259;23;20314;-82
2021/08/29 00:39:01;;;;;;;3.47;2.00;;;18.00;99.90;;;;;;6126069;23;20010;-82
2021/08/29 00:41:28;;;;;;;2.55;1.80;;;17.90;99.90;;;;;;6126417;23;20484;-82
2021/08/29 00:43:54;;;;;;;4.78;1.80;;;17.90;99.90;;;;;;6126273;23;20073;-83
2021/08/29 00:46:21;;;;;;;2.22;2.00;;;17.80;99.90;;;;;;6126271;23;20005;-83
2021/08/29 00:48:52;;;;;;;3.67;2.15;;;17.80;99.90;;;;;;6126535;23;20013;-82
2021/08/29 00:51:18;;;;;;;3.00;1.80;;;17.80;99.90;;;;;;6126252;23;20006;-83
2021/08/29 00:53:54;;;;;;;3.42;1.98;;;17.80;99.90;;;;;;6126082;23;20006;-82
2021/08/29 00:56:21;;;;;;;4.28;1.83;;;17.70;99.90;;;;;;6126272;23;20002;-83
2021/08/29 00:58:48;;;;;;;2.75;2.28;;;17.70;99.90;;;;;;6126174;23;20018;-81
2021/08/29 01:01:16;;;;;;;3.33;2.10;;;17.70;99.90;;;;;;6149696;23;20014;-83
2021/08/29 01:03:42;;;;;;;3.13;2.03;;;17.60;99.90;;;;;;6156282;23;20021;-83
2021/08/29 01:06:45;;;;;;;2.72;2.05;;;17.60;99.90;;;;;;6155423;23;20025;-83
2021/08/29 01:09:13;;;;;;;5.53;1.77;;;17.50;99.90;;;;;;6155579;23;20005;-83
2021/08/29 01:11:42;;;;;;;2.92;1.73;;;17.50;99.90;;;;;;6129312;23;20298;-83
2021/08/29 01:14:12;;;;;;;2.45;1.60;;;17.50;99.90;;;;;;6155592;23;20032;-83
2021/08/29 01:16:40;;;;;;;6.32;2.28;;;17.50;99.90;;;;;;6153887;23;20032;-83
2021/08/29 01:19:12;;;;;;;4.00;2.25;;;17.50;99.90;;;;;;6155578;23;20021;-83
2021/08/29 01:21:39;;;;;;;2.30;1.85;;;17.50;99.90;;;;;;6155669;23;20009;-83
2021/08/29 01:24:09;;;;;;;3.33;2.10;;;17.50;99.90;;;;;;6155458;23;20002;-83
2021/08/29 01:26:47;;;;;;;5.80;2.10;;;17.50;99.90;;;;;;6155528;23;20005;-83
2021/08/29 01:29:15;;;;;;;3.63;1.55;;;17.50;99.90;;;;;;6155731;23;20078;-83
2021/08/29 01:31:42;;;;;;;3.33;1.90;;;17.50;99.90;;;;;;6155615;23;20306;-83
2021/08/29 01:34:11;;;;;;;7.38;2.28;;;17.50;99.90;;;;;;6155407;23;20001;-83
2021/08/29 01:36:40;;;;;;;2.60;1.85;;;17.50;99.90;;;;;;6155494;23;20467;-84
2021/08/29 01:39:06;;;;;;;3.75;1.70;;;17.40;99.90;;;;;;6155180;23;19997;-83
2021/08/29 01:41:33;;;;;;;3.30;2.08;;;17.40;99.90;;;;;;6155657;23;20005;-83
2021/08/29 01:44:00;;;;;;;3.92;2.10;;;17.40;99.90;;;;;;6160073;23;20009;-83
2021/08/29 01:46:25;;;;;;;2.65;2.00;;;17.30;99.90;;;;;;6130370;23;20329;-83
2021/08/29 01:48:52;;;;;;;5.20;2.08;;;17.30;99.90;;;;;;6156221;23;20001;-83
2021/08/29 01:51:18;;;;;;;3.00;1.90;;;17.30;99.90;;;;;;6156389;23;20000;-83
2021/08/29 01:53:44;;;;;;;6.65;2.17;;;17.30;99.90;;;;;;6130222;23;20041;-83
2021/08/29 01:56:10;;;;;;;5.53;2.05;;;17.40;99.90;;;;;;6156014;23;20034;-83
2021/08/29 01:58:36;;;;;;;2.83;1.95;;;17.50;99.90;;;;;;6156263;23;20017;-82
2021/08/29 02:01:12;;;;;;;2.20;1.70;;;17.50;99.90;;;;;;6156187;23;20014;-83
2021/08/29 02:03:42;;;;;;;3.75;1.90;;;17.50;99.90;;;;;;6156259;23;20002;-82
2021/08/29 02:06:30;;;;;;;3.95;2.15;;;17.40;99.90;;;;;;6156229;23;20001;-83
2021/08/29 02:09:00;;;;;;;4.03;2.42;;;17.40;99.90;;;;;;6129964;23;20009;-83
2021/08/29 02:11:41;;;;;;;3.33;2.25;;;17.40;99.90;;;;;;6129901;23;19998;-83
2021/08/29 02:14:12;;;;;;;3.90;2.10;;;17.40;99.90;;;;;;6156107;23;20008;-83
2021/08/29 02:16:40;;;;;;;4.72;2.13;;;17.30;99.90;;;;;;6156028;23;20041;-83
2021/08/29 02:19:07;;;;;;;5.22;2.55;;;17.30;99.90;;;;;;6155706;23;20348;-83
2021/08/29 02:21:35;;;;;;;4.90;2.33;;;17.30;99.90;;;;;;6156321;23;20005;-83
2021/08/29 02:24:03;;;;;;;4.25;2.55;;;17.30;99.90;;;;;;6129712;23;20455;-83
2021/08/29 02:26:30;;;;;;;3.90;2.10;;;17.40;99.90;;;;;;6155921;23;20024;-83
2021/08/29 02:28:56;;;;;;;3.08;2.15;;;17.30;99.90;;;;;;6129584;23;20016;-83
2021/08/29 02:31:22;;;;;;;3.72;2.03;;;17.40;99.90;;;;;;6155549;23;20006;-83
2021/08/29 02:33:49;;;;;;;4.00;2.28;;;17.40;99.90;;;;;;6156024;23;20004;-84
2021/08/29 02:36:16;;;;;;;4.53;2.63;;;17.40;99.90;;;;;;6156124;23;20002;-83
2021/08/29 02:38:43;;;;;;;2.42;1.95;;;17.40;99.90;;;;;;6129572;23;20013;-83
2021/08/29 02:41:10;;;;;;;3.33;2.35;;;17.40;99.90;;;;;;6155789;23;20069;-83
2021/08/29 02:43:36;;;;;;;3.00;1.92;;;17.40;99.90;;;;;;6129620;23;20010;-83
2021/08/29 02:46:02;;;;;;;2.85;1.95;;;17.40;99.90;;;;;;6155670;23;20020;-84
2021/08/29 02:48:30;;;;;;;2.58;1.85;;;17.40;99.90;;;;;;6155720;23;20006;-83
2021/08/29 02:50:57;;;;;;;4.15;1.90;;;17.40;99.90;;;;;;6129536;23;20096;-83
2021/08/29 02:53:24;;;;;;;2.88;1.85;;;17.40;99.90;;;;;;6129175;23;20012;-83
2021/08/29 02:55:55;;;;;;;2.88;2.03;;;17.40;99.90;;;;;;6156686;23;20021;-83
2021/08/29 02:58:21;;;;;;;3.47;2.20;;;17.40;99.90;;;;;;6130340;23;20014;-83
2021/08/29 03:00:47;;;;;;;2.17;1.70;;;17.40;99.90;;;;;;6156103;23;20352;-84
2021/08/29 03:03:13;;;;;;;3.33;2.00;;;17.40;99.90;;;;;;6154947;23;20006;-83
2021/08/29 03:05:39;;;;;;;4.68;2.17;;;17.40;99.90;;;;;;6156497;23;20132;-83
2021/08/29 03:08:05;;;;;;;2.85;1.90;;;17.40;99.90;;;;;;6156284;23;20424;-83
2021/08/29 03:10:32;;;;;;;5.05;2.15;;;17.40;99.90;;;;;;6130374;23;20345;-84
2021/08/29 03:13:03;;;;;;;3.15;1.85;;;17.40;99.90;;;;;;6156322;23;20001;-84
2021/08/29 03:15:32;;;;;;;10.00;2.07;;;17.40;99.90;;;;;;6156459;23;20012;-83
2021/08/29 03:17:58;;;;;;;2.10;1.70;;;17.40;99.90;;;;;;6130248;23;20267;-84
2021/08/29 03:20:25;;;;;;;2.33;1.67;;;17.40;99.90;;;;;;6156540;23;20436;-83
2021/08/29 03:22:51;;;;;;;3.67;1.48;;;17.40;99.90;;;;;;6156380;23;20013;-84
2021/08/29 03:25:18;;;;;;;8.50;2.10;;;17.50;99.90;;;;;;6129998;23;20061;-84
2021/08/29 03:27:43;;;;;;;3.42;1.60;;;17.50;99.90;;;;;;6154843;23;20009;-84
2021/08/29 03:30:10;;;;;;;3.00;2.00;;;17.50;99.90;;;;;;6155025;23;20072;-85
2021/08/29 03:32:37;;;;;;;2.75;1.85;;;17.50;99.90;;;;;;6156319;23;20432;-84
2021/08/29 03:35:04;;;;;;;2.80;1.77;;;17.50;99.90;;;;;;6154476;23;20009;-84
2021/08/29 03:37:31;;;;;;;3.33;1.98;;;17.50;99.90;;;;;;6156186;23;20080;-84
2021/08/29 03:40:00;;;;;;;2.70;1.67;;;17.50;99.90;;;;;;6156130;23;20002;-83
2021/08/29 03:42:26;;;;;;;7.72;1.80;;;17.40;99.90;;;;;;6156084;23;20487;-84
2021/08/29 03:44:53;;;;;;;5.22;2.20;;;17.40;99.90;;;;;;6156246;23;20028;-85
2021/08/29 03:47:19;;;;;;;2.50;1.55;;;17.40;99.90;;;;;;6130036;23;20331;-84
2021/08/29 03:49:45;;;;;;;4.15;1.58;;;17.40;99.90;;;;;;6155974;23;20025;-84
2021/08/29 03:52:13;;;;;;;2.90;1.83;;;17.50;99.90;;;;;;6156202;23;20009;-84
2021/08/29 03:54:41;;;;;;;2.60;1.98;;;17.50;99.90;;;;;;6156005;23;20002;-84
2021/08/29 03:57:08;;;;;;;1.80;1.50;;;17.40;99.90;;;;;;6156000;23;20080;-83
2021/08/29 03:59:34;;;;;;;3.55;2.00;;;17.40;99.90;;;;;;6155999;23;20025;-83
2021/08/29 04:01:59;;;;;;;2.63;1.50;;;17.50;99.90;;;;;;6155945;23;20013;-84
2021/08/29 04:04:25;;;;;;;3.97;1.88;;;17.50;99.90;;;;;;6155755;23;19997;-83
2021/08/29 04:06:54;;;;;;;1.83;1.50;;;17.50;99.90;;;;;;6155698;23;20006;-83
2021/08/29 04:09:22;;;;;;;1.33;1.17;;;17.50;99.90;;;;;;6155868;23;20383;-84
2021/08/29 04:11:49;;;;;;;2.05;1.63;;;17.50;99.90;;;;;;6129738;23;20088;-84
2021/08/29 04:14:15;;;;;;;2.92;1.52;;;17.50;99.90;;;;;;6130161;23;20006;-83
2021/08/29 04:16:41;;;;;;;2.63;1.70;;;17.50;99.90;;;;;;6155589;23;19998;-84
2021/08/29 04:19:08;;;;;;;5.90;1.50;;;17.50;99.90;;;;;;6155935;23;20016;-84
2021/08/29 04:21:34;;;;;;;1.23;1.13;;;17.50;99.90;;;;;;6129892;23;20404;-84
2021/08/29 04:23:59;;;;;;;2.22;1.75;;;17.50;99.90;;;;;;6155811;23;20072;-83
2021/08/29 04:26:26;;;;;;;1.30;1.20;;;17.50;99.90;;;;;;6155568;23;20320;-84
2021/08/29 04:28:52;;;;;;;3.70;1.85;;;17.50;99.90;;;;;;6155808;23;20037;-84
2021/08/29 04:31:32;;;;;;;1.58;1.48;;;17.50;99.90;;;;;;6129787;23;20325;-83
2021/08/29 04:34:02;;;;;;;4.85;1.13;;;17.50;99.90;;;;;;6156095;23;20001;-83
2021/08/29 04:36:32;;;;;;;1.73;1.58;;;17.50;99.90;;;;;;6129385;23;20033;-84
2021/08/29 04:38:59;;;;;;;6.00;1.70;;;17.50;99.90;;;;;;6155319;23;20013;-83
2021/08/29 04:41:25;;;;;;;2.58;1.40;;;17.60;99.90;;;;;;6129853;23;20005;-84
2021/08/29 04:43:51;;;;;;;2.33;1.48;;;17.60;99.90;;;;;;6155762;23;20487;-84
2021/08/29 04:46:16;;;;;;;2.22;1.25;;;17.50;99.90;;;;;;6155646;23;20005;-84
2021/08/29 04:48:42;;;;;;;2.72;1.33;;;17.50;99.90;;;;;;6155780;23;20006;-84
2021/08/29 04:51:08;;;;;;;2.03;1.30;;;17.50;99.90;;;;;;6155442;23;20001;-84
2021/08/29 04:53:33;;;;;;;3.55;1.40;;;17.60;99.90;;;;;;6129709;23;20010;-84
2021/08/29 04:55:59;;;;;;;1.70;1.33;;;17.60;99.90;;;;;;6155728;23;20429;-82
2021/08/29 04:58:25;;;;;;;1.10;1.00;;;17.70;99.90;;;;;;6129319;23;20384;-83
2021/08/29 05:00:50;;;;;;;1.63;1.20;;;17.70;99.90;;;;;;6124317;23;20014;-84
2021/08/29 05:03:16;;;;;;;1.48;1.23;;;17.70;99.90;;;;;;6126342;23;20397;-84
2021/08/29 05:05:42;;;;;;;2.10;1.83;;;17.70;99.90;;;;;;6149196;23;20452;-84
2021/08/29 05:08:07;;;;;;;2.38;1.40;;;17.70;99.90;;;;;;6126040;23;20522;-84
2021/08/29 05:10:33;;;;;;;2.05;1.45;;;17.70;99.90;;;;;;6125992;23;19998;-84
2021/08/29 05:12:58;;;;;;;2.17;1.42;;;17.70;99.90;;;;;;6126205;23;20484;-83
2021/08/29 05:15:24;;;;;;;2.00;1.30;;;17.70;99.90;;;;;;6126214;23;20001;-84
2021/08/29 05:17:50;;;;;;;6.32;1.50;;;17.70;99.90;;;;;;6127775;23;20010;-84
2021/08/29 05:20:15;;;;;;;1.75;1.30;;;17.70;99.90;;;;;;6127712;23;20004;-84
2021/08/29 05:22:41;;;;;;;3.85;1.30;;;17.70;99.90;;;;;;6126623;23;20006;-84
2021/08/29 05:25:07;;;;;;;2.53;1.00;;;17.70;99.90;;;;;;6127900;23;20009;-84
2021/08/29 05:27:33;;;;;;;1.75;1.23;;;17.80;99.90;;;;;;6128085;23;20480;-84
2021/08/29 05:29:59;;;;;;;1.50;1.20;;;17.70;99.90;;;;;;6127907;23;19997;-83
2021/08/29 05:32:24;;;;;;;1.35;1.00;;;17.80;99.90;;;;;;6128013;23;20394;-84
2021/08/29 05:34:50;;;;;;;1.48;1.20;;;17.90;99.90;;;;;;6150954;23;20006;-84
2021/08/29 05:37:16;;;;;;;1.40;1.08;;;18.40;99.90;;;;;;6127865;23;20057;-85
2021/08/29 05:39:41;;;;;;;3.65;1.50;;;18.90;99.90;;;;;;6127739;23;20005;-84
2021/08/29 05:42:07;;;;;;;4.72;1.40;;;19.10;99.90;;;;;;6149969;23;20005;-83
2021/08/29 05:44:33;;;;;;;5.38;1.30;;;19.20;99.90;;;;;;6126920;23;20032;-84
2021/08/29 05:46:58;;;;;;;1.25;1.02;;;19.30;99.90;;;;;;6149857;23;20072;-84
2021/08/29 05:49:24;;;;;;;11.13;1.83;;;20.50;99.90;;;;;;6125163;23;20006;-84
2021/08/29 05:51:50;;;;;;;1.92;1.20;;;21.20;99.90;;;;;;6149894;23;20041;-84
2021/08/29 05:54:17;;;;;;;4.72;1.30;;;21.30;99.90;;;;;;6126531;23;20009;-84
2021/08/29 05:56:43;;;;;;;1.95;1.02;;;21.60;99.90;;;;;;6126780;23;20356;-84
2021/08/29 05:59:09;;;;;;;1.95;1.08;;;22.30;99.90;;;;;;6150021;23;20002;-84
2021/08/29 06:01:34;;;;;;;5.00;1.02;;;21.90;99.90;;;;;;6154467;23;20520;-85
2021/08/29 06:04:00;;;;;;;6.22;1.10;;;21.40;99.90;;;;;;6156392;23;20376;-83
2021/08/29 06:06:26;;;;;;;4.57;1.00;;;21.00;99.90;;;;;;6156298;23;20036;-84
2021/08/29 06:08:51;;;;;;;1.58;0.82;;;21.50;99.90;;;;;;6130067;23;20033;-83
2021/08/29 06:11:17;;;;;;;1.40;0.77;;;22.20;99.90;;;;;;6156070;23;20028;-84
2021/08/29 06:13:43;;;;;;;0.90;0.82;;;21.90;99.90;;;;;;6156303;23;20010;-85
2021/08/29 06:16:09;;;;;;;3.10;1.10;;;21.70;99.90;;;;;;6155954;23;20001;-84
2021/08/29 06:18:34;;;;;;;0.88;0.85;;;22.10;99.90;;;;;;6130290;23;20314;-84
2021/08/29 06:21:00;;;;;;;1.27;1.08;;;23.10;99.40;;;;;;6156053;23;19997;-84
2021/08/29 06:23:26;;;;;;;2.35;0.98;;;23.80;98.30;;;;;;6156097;23;20013;-84
2021/08/29 06:25:52;;;;;;;1.92;0.90;;;25.20;96.40;;;;;;6154280;23;19998;-83
2021/08/29 06:28:17;;;;;;;0.77;0.70;;;26.70;94.20;;;;;;6156031;23;20001;-84
2021/08/29 06:30:43;;;;;;;2.67;1.00;;;27.70;92.00;;;;;;6155890;23;20028;-84
2021/08/29 06:33:09;;;;;;;1.17;0.95;;;27.80;91.10;;;;;;6155888;23;20006;-85
2021/08/29 06:35:34;;;;;;;3.10;0.90;;;28.30;90.00;;;;;;6156028;23;20002;-83
2021/08/29 06:38:00;;;;;;;0.60;0.60;;;28.50;88.70;;;;;;6155803;23;20013;-83
2021/08/29 06:40:25;;;;;;;0.52;0.52;;;28.30;87.70;;;;;;6155821;23;19998;-84
2021/08/29 06:42:51;;;;;;;1.65;0.90;;;28.70;87.20;;;;;;6129822;23;20344;-84
2021/08/29 06:45:17;;;;;;;1.33;0.65;;;29.10;86.00;;;;;;6155538;23;20428;-84
2021/08/29 06:47:42;;;;;;;0.80;0.70;;;29.40;84.90;;;;;;6154283;23;20033;-84
2021/08/29 06:50:09;;;;;;;0.57;0.57;;;29.50;84.10;;;;;;6155872;23;19997;-84
2021/08/29 06:52:34;;;;;;;2.53;0.55;;;30.30;82.60;;;;;;6155678;23;20072;-84
2021/08/29 06:55:00;;;;;;;1.25;0.50;;;30.30;80.70;;;;;;6156616;23;20029;-83
2021/08/29 06:57:27;;;;;;;0.85;0.65;;;29.90;81.60;;;;;;6132792;23;20013;-83
2021/08/29 06:59:53;;;;;;;1.08;0.60;;;30.10;81.70;;;;;;6156425;23;20010;-83
2021/08/29 07:02:21;;;;;;;0.47;0.40;;;30.70;80.40;;;;;;6156627;23;19997;-84
2021/08/29 07:04:47;;;;;;;1.38;0.75;;;31.00;79.60;;;;;;6156846;23;20521;-85
2021/08/29 07:07:13;;;;;;;3.83;0.70;;;31.20;78.20;;;;;;6130869;23;20060;-83
2021/08/29 07:09:39;;;;;;;0.88;0.60;;;31.40;77.00;;;;;;6130480;23;20012;-82
2021/08/29 07:12:06;;;;;;;0.93;0.70;;;31.80;76.50;;;;;;6156401;23;20005;-83
2021/08/29 07:14:32;;;;;;;0.65;0.50;;;31.80;75.70;;;;;;6156665;23;20064;-88
2021/08/29 07:16:58;;;;;;;0.50;0.50;;;32.50;75.10;;;;;;6156242;23;20017;-84
2021/08/29 07:19:23;;;;;;;0.50;0.50;;;33.40;72.80;;;;;;6129886;23;20077;-81
2021/08/29 07:21:49;;;;;;;1.85;0.60;;;33.80;71.80;;;;;;6155922;23;20025;-83
2021/08/29 07:24:15;;;;;;;0.60;0.45;;;34.80;69.90;;;;;;6155742;23;19999;-85
2021/08/29 07:26:41;;;;;;;0.50;0.40;;;34.60;67.70;;;;;;6129092;23;20028;-83
2021/08/29 07:29:07;;;;;;;1.20;0.45;;;35.00;66.80;;;;;;6129645;23;20009;-84
2021/08/29 07:31:32;;;;;;;0.40;0.40;;;35.20;66.10;;;;;;6157184;23;20007;-81
2021/08/29 07:33:58;;;;;;;0.40;0.40;;;34.60;65.50;;;;;;6156393;23;20365;-82
2021/08/29 07:36:24;;;;;;;1.65;0.50;;;34.70;65.60;;;;;;6155793;23;20475;-85
2021/08/29 07:38:50;;;;;;;0.43;0.43;;;35.10;65.00;;;;;;6129788;23;20029;-80
2021/08/29 07:41:15;;;;;;;2.30;0.32;;;35.10;64.80;;;;;;6156243;23;20068;-83
2021/08/29 07:43:41;;;;;;;0.85;0.68;;;35.30;64.40;;;;;;6130025;23;20072;-82
2021/08/29 07:46:08;;;;;;;2.10;0.50;;;36.10;64.00;;;;;;6154194;23;20009;-82
2021/08/29 07:48:34;;;;;;;1.50;0.40;;;36.00;62.10;;;;;;6155163;23;20009;-83
2021/08/29 07:50:59;;;;;;;0.20;0.20;;;36.20;62.20;;;;;;6129800;23;20005;-83
2021/08/29 07:53:25;;;;;;;0.50;0.40;;;36.40;60.90;;;;;;6129816;23;20132;-84
2021/08/29 07:55:51;;;;;;;0.40;0.30;;;36.00;62.00;;;;;;6154631;23;20010;-86
2021/08/29 07:58:18;;;;;;;0.40;0.40;;;36.30;61.20;;;;;;6128706;23;20044;-85
2021/08/29 08:00:44;;;;;;;0.38;0.38;;;35.20;61.00;;;;;;6154837;23;20013;-85
2021/08/29 08:03:10;;;;;;;2.65;0.22;;;34.80;62.70;;;;;;6128508;23;20012;-84
2021/08/29 08:05:36;;;;;;;1.10;0.40;;;34.80;61.10;;;;;;6155273;23;20002;-83
2021/08/29 08:08:02;;;;;;;0.43;0.38;;;34.30;62.10;;;;;;6153499;23;20002;-84
2021/08/29 08:10:29;;;;;;;1.25;0.65;;;34.50;62.90;;;;;;6155020;23;20006;-83
2021/08/29 08:12:55;;;;;;;0.30;0.30;;;34.70;62.70;;;;;;6154726;23;20005;-83
2021/08/29 08:15:21;;;;;;;3.70;0.57;;;35.50;61.90;;;;;;6154920;23;20512;-83
2021/08/29 08:17:47;;;;;;;0.43;0.30;;;36.20;61.50;;;;;;6154999;23;20240;-84
2021/08/29 08:20:13;;;;;;;0.35;0.35;;;36.30;60.30;;;;;;6154892;23;20072;-84
2021/08/29 08:22:39;;;;;;;3.95;0.40;;;36.60;59.90;;;;;;6154940;23;20071;-84
2021/08/29 08:25:06;;;;;;;1.98;0.35;;;37.20;58.90;;;;;;6155291;23;20005;-86
2021/08/29 08:27:31;;;;;;;0.60;0.25;;;37.50;58.50;;;;;;6155536;23;20365;-88
2021/08/29 08:29:57;;;;;;;1.17;0.40;;;38.10;58.10;;;;;;6155563;23;20044;-86
2021/08/29 08:32:23;;;;;;;2.63;0.17;;;37.60;56.80;;;;;;6155851;23;20001;-84
2021/08/29 08:34:48;;;;;;;0.30;0.30;;;36.70;58.00;;;;;;6129762;23;20056;-85
2021/08/29 08:37:14;;;;;;;1.30;0.30;;;35.70;58.00;;;;;;6155420;23;20147;-84
2021/08/29 08:39:40;;;;;;;0.30;0.20;;;35.30;59.00;;;;;;6155630;23;20305;-84
2021/08/29 08:42:05;;;;;;;0.95;0.30;;;34.60;59.20;;;;;;6156022;23;20002;-84
2021/08/29 08:44:32;;;;;;;0.50;0.30;;;34.60;59.20;;;;;;6155518;23;19993;-83
2021/08/29 08:47:01;;;;;;;0.82;0.30;;;34.80;58.90;;;;;;6155852;23;20012;-84
2021/08/29 08:49:28;;;;;;;0.30;0.30;;;34.80;59.30;;;;;;6130932;23;20005;-85
2021/08/29 08:52:00;;;;;;;2.33;0.30;;;35.20;59.40;;;;;;6131374;23;20009;-85
2021/08/29 08:54:26;;;;;;;0.43;0.40;;;35.20;58.70;;;;;;6157495;23;19998;-84
2021/08/29 08:56:53;;;;;;;0.20;0.20;;;34.90;59.20;;;;;;6131692;23;20021;-84
2021/08/29 08:59:19;;;;;;;0.45;0.20;;;34.00;59.80;;;;;;6157327;23;20012;-83
2021/08/29 09:01:45;;;;;;;0.93;0.28;;;33.50;60.00;;;;;;6157730;23;20037;-84
2021/08/29 09:04:11;;;;;;;0.25;0.25;;;32.60;60.80;;;;;;6157759;23;20021;-84
2021/08/29 09:06:36;;;;;;;0.52;0.30;;;31.60;62.20;;;;;;6157584;23;20162;-85
2021/08/29 09:09:03;;;;;;;1.40;0.40;;;30.60;64.20;;;;;;6157822;23;20328;-82
2021/08/29 09:11:33;;;;;;;0.60;0.28;;;30.10;65.40;;;;;;6157268;23;20006;-87
2021/08/29 09:14:00;;;;;;;0.77;0.40;;;29.80;66.20;;;;;;6131261;23;20006;-85
2021/08/29 09:16:27;;;;;;;0.47;0.30;;;29.10;66.70;;;;;;6157236;23;20056;-85
2021/08/29 09:19:01;;;;;;;0.88;0.40;;;28.70;67.80;;;;;;6157183;23;20005;-86
2021/08/29 09:21:32;;;;;;;0.93;0.45;;;28.30;69.20;;;;;;6157597;23;20024;-85
2021/08/29 09:24:00;;;;;;;3.85;0.60;;;28.00;68.90;;;;;;6157778;23;20044;-85
2021/08/29 09:26:28;;;;;;;0.60;0.50;;;27.50;69.60;;;;;;6157984;23;19998;-86
2021/08/29 09:28:56;;;;;;;1.25;1.15;;;27.30;70.60;;;;;;6157404;23;20002;-85
2021/08/29 09:31:22;;;;;;;1.85;1.23;;;27.40;70.20;;;;;;6159404;23;20335;-83
2021/08/29 09:33:58;;;;;;;3.75;0.50;;;27.50;69.50;;;;;;6157618;23;20027;-83
2021/08/29 09:36:33;;;;;;;1.85;0.60;;;27.30;68.50;;;;;;6156047;23;20025;-84
2021/08/29 09:39:19;;;;;;;0.55;0.38;;;27.30;69.90;;;;;;6130960;23;20357;-85
2021/08/29 09:41:45;;;;;;;1.17;0.45;;;27.00;70.10;;;;;;6157006;23;20096;-85
2021/08/29 09:44:15;;;;;;;1.08;0.60;;;26.70;69.80;;;;;;6157541;23;20064;-84
2021/08/29 09:47:02;;;;;;;1.35;0.47;;;26.50;70.80;;;;;;6157406;23;19998;-85
2021/08/29 09:49:34;;;;;;;0.50;0.40;;;26.60;70.40;;;;;;6157482;23;20010;-84
2021/08/29 09:52:03;;;;;;;0.70;0.43;;;26.70;70.10;;;;;;6156984;23;20001;-84
2021/08/29 09:54:40;;;;;;;0.30;0.30;;;26.40;69.20;;;;;;6157352;23;20058;-83
2021/08/29 09:57:11;;;;;;;0.70;0.52;;;26.00;69.50;;;;;;6157111;23;20039;-84
2021/08/29 09:59:40;;;;;;;1.25;0.50;;;26.10;70.70;;;;;;6130919;23;20546;-86
2021/08/29 10:02:07;;;;;;;0.30;0.30;;;26.10;70.80;;;;;;6156064;23;20005;-83
2021/08/29 10:04:33;;;;;;;0.40;0.40;;;25.80;69.90;;;;;;6156960;23;19997;-84
2021/08/29 10:07:15;;;;;;;0.40;0.40;;;25.60;70.40;;;;;;6156559;23;20354;-84
2021/08/29 10:09:42;;;;;;;0.43;0.38;;;25.60;71.50;;;;;;6123715;23;20017;-84
2021/08/29 10:12:09;;;;;;;1.15;0.52;;;25.40;71.40;;;;;;6156820;23;20068;-83
2021/08/29 10:14:37;;;;;;;0.20;0.20;;;25.40;71.60;;;;;;6157204;23;19998;-85
2021/08/29 10:17:03;;;;;;;0.60;0.50;;;25.50;70.70;;;;;;6156806;23;20065;-86
2021/08/29 10:19:30;;;;;;;0.30;0.30;;;25.50;70.30;;;;;;6156906;23;20005;-84
2021/08/29 10:21:57;;;;;;;0.40;0.40;;;25.50;71.30;;;;;;6157231;23;20016;-84
2021/08/29 10:24:27;;;;;;;0.38;0.30;;;25.50;71.30;;;;;;6156949;23;20001;-86
2021/08/29 10:26:55;;;;;;;0.57;0.50;;;25.40;70.90;;;;;;6156935;23;20033;-84
2021/08/29 10:29:28;;;;;;;0.22;0.20;;;25.30;71.30;;;;;;6130515;23;20061;-86
2021/08/29 10:32:22;;;;;;;1.33;0.30;;;25.10;72.20;;;;;;6157249;23;20558;-86
2021/08/29 10:34:49;;;;;;;1.10;0.40;;;24.90;72.30;;;;;;6103769;23;20029;-83
2021/08/29 10:37:15;;;;;;;1.55;0.40;;;24.70;72.40;;;;;;6156556;23;20009;-84
2021/08/29 10:39:41;;;;;;;1.20;0.40;;;24.70;72.40;;;;;;6130770;23;20002;-84
2021/08/29 10:42:07;;;;;;;0.35;0.35;;;24.60;73.20;;;;;;6156528;23;20011;-83
2021/08/29 10:44:34;;;;;;;1.23;0.45;;;24.60;74.10;;;;;;6156773;23;20005;-85
2021/08/29 10:47:01;;;;;;;0.40;0.40;;;24.50;74.60;;;;;;6156740;23;20081;-86
2021/08/29 10:49:27;;;;;;;0.40;0.40;;;24.60;74.30;;;;;;6156199;23;20075;-85
2021/08/29 10:51:54;;;;;;;1.15;0.50;;;24.80;73.60;;;;;;6154352;23;20013;-85
2021/08/29 10:54:19;;;;;;;1.38;0.60;;;24.80;72.90;;;;;;6129180;23;20005;-84
2021/08/29 10:56:46;;;;;;;0.32;0.32;;;24.50;73.20;;;;;;6155375;23;20006;-84
2021/08/29 10:59:12;;;;;;;0.40;0.40;;;24.50;74.40;;;;;;6155701;23;20002;-85
2021/08/29 11:01:49;;;;;;;1.67;0.40;;;24.50;74.80;;;;;;6155626;23;20013;-84
2021/08/29 11:04:17;;;;;;;0.55;0.55;;;24.40;74.90;;;;;;6155613;23;20001;-86
2021/08/29 11:06:47;;;;;;;0.55;0.40;;;24.30;74.80;;;;;;6129407;23;20008;-84
2021/08/29 11:09:39;;;;;;;2.20;0.63;;;24.10;75.10;;;;;;6129544;23;20013;-85
2021/08/29 11:12:26;;;;;;;0.47;0.43;;;23.80;75.70;;;;;;6155578;23;20085;-85
2021/08/29 11:14:55;;;;;;;0.50;0.50;;;23.60;76.90;;;;;;6128982;23;20424;-84
2021/08/29 11:17:25;;;;;;;2.13;0.50;;;23.50;77.30;;;;;;6129565;23;20017;-86
2021/08/29 11:19:55;;;;;;;0.68;0.50;;;23.50;77.10;;;;;;6155930;23;20001;-86
2021/08/29 11:22:23;;;;;;;1.02;0.35;;;23.50;77.00;;;;;;6156804;23;20028;-87
2021/08/29 11:24:51;;;;;;;0.60;0.50;;;23.60;77.80;;;;;;6156457;23;20002;-85
2021/08/29 11:27:42;;;;;;;0.80;0.50;;;23.80;77.60;;;;;;6156364;23;20070;-86
2021/08/29 11:30:22;;;;;;;0.47;0.47;;;24.10;77.20;;;;;;6130098;23;20021;-85
2021/08/29 11:32:58;;;;;;;0.68;0.50;;;24.30;76.30;;;;;;6156730;23;20450;-84
2021/08/29 11:35:39;;;;;;;2.45;0.38;;;24.40;75.90;;;;;;6156399;23;20008;-86
2021/08/29 11:38:13;;;;;;;0.77;0.60;;;24.50;75.40;;;;;;6156029;23;20039;-87
2021/08/29 11:41:02;;;;;;;0.65;0.50;;;24.50;76.90;;;;;;6156335;23;20037;-86
2021/08/29 11:43:27;;;;;;;0.50;0.50;;;24.40;75.30;;;;;;6130009;23;20009;-86
2021/08/29 11:46:15;;;;;;;0.93;0.40;;;24.30;76.70;;;;;;6130268;23;20020;-87
2021/08/29 11:48:56;;;;;;;0.43;0.40;;;24.30;76.50;;;;;;6156091;23;20001;-86
2021/08/29 11:51:43;;;;;;;0.60;0.50;;;24.20;75.10;;;;;;6156220;23;19997;-85
2021/08/29 11:54:09;;;;;;;0.80;0.50;;;24.20;76.60;;;;;;6130302;23;20001;-85
2021/08/29 11:56:36;;;;;;;0.80;0.70;;;24.30;77.00;;;;;;6154555;23;20009;-85
2021/08/29 11:59:06;;;;;;;0.32;0.32;;;24.50;77.00;;;;;;6155835;23;20027;-85
2021/08/29 12:01:33;;;;;;;0.82;0.40;;;24.60;76.80;;;;;;6149489;23;20022;-85
2021/08/29 12:04:01;;;;;;;0.55;0.40;;;24.70;76.90;;;;;;6125547;23;20488;-86
2021/08/29 12:06:32;;;;;;;2.08;0.32;;;24.70;75.80;;;;;;6129884;23;20009;-85
2021/08/29 12:09:22;;;;;;;0.55;0.45;;;24.90;76.20;;;;;;6126582;23;20094;-86
2021/08/29 12:11:49;;;;;;;0.50;0.50;;;25.00;76.40;;;;;;6124968;23;20013;-85
2021/08/29 12:14:19;;;;;;;0.95;0.75;;;25.20;75.80;;;;;;6126551;23;20008;-86
2021/08/29 12:16:59;;;;;;;2.13;1.27;;;25.40;76.00;;;;;;6126528;23;20002;-86
2021/08/29 12:19:26;;;;;;;1.67;1.13;;;25.60;78.10;;;;;;6124941;23;20017;-86
2021/08/29 12:21:53;;;;;;;5.13;2.60;;;25.60;80.30;;;;;;6126617;23;20002;-86
2021/08/29 12:24:39;;;;;;;6.55;3.00;;;25.70;80.30;;;;;;6126381;23;20002;-87
2021/08/29 12:27:25;;;;;;;1.23;0.90;;;25.80;80.20;;;;;;6126361;23;20002;-86
2021/08/29 12:29:59;;;;;;;6.50;2.15;;;25.80;80.10;;;;;;6126465;23;20002;-85
2021/08/29 12:32:32;;;;;;;21.38;10.80;;;25.70;80.10;;;;;;6126515;23;20077;-86
2021/08/29 12:35:08;;;;;;;1.05;0.80;;;25.70;81.50;;;;;;6126497;23;20009;-86
2021/08/29 12:37:40;;;;;;;10.15;4.60;;;25.70;82.60;;;;;;6126278;23;20013;-87
2021/08/29 12:40:12;;;;;;;4.10;2.40;;;25.60;82.70;;;;;;6126523;23;20434;-86
2021/08/29 12:42:48;;;;;;;5.95;2.85;;;25.40;85.60;;;;;;6124797;23;20045;-86
2021/08/29 12:45:16;;;;;;;3.90;1.42;;;25.20;84.90;;;;;;6126346;23;19998;-87
2021/08/29 12:47:44;;;;;;;3.53;1.02;;;25.20;84.70;;;;;;6149784;23;20006;-87
2021/08/29 12:50:12;;;;;;;1.00;0.82;;;25.30;84.00;;;;;;6124950;23;20018;-83